Aviation Digital Data Service (ADDS)

Output produced by METARs form (0018 UTC 26 June 2017)
found at http://aviationweather.gov/adds/metars/
 
KMFD 252339Z 2600/2624 24007KT P6SM SCT080 
     FM261400 26012G20KT P6SM BKN045 
     FM261800 26015G22KT P6SM BKN060